sensor_id;sensor_type;location;lat;lon;timestamp;temperature;humidity
49503;DHT22;35409;48.776;9.204;2022-10-31T00:47:17;10.90;99.90
49503;DHT22;35409;48.776;9.204;2022-10-31T00:49:43;10.70;99.90
49503;DHT22;35409;48.776;9.204;2022-10-31T00:52:08;10.70;99.90
49503;DHT22;35409;48.776;9.204;2022-10-31T00:54:34;10.60;99.90
49503;DHT22;35409;48.776;9.204;2022-10-31T00:57:00;10.50;99.90
49503;DHT22;35409;48.776;9.204;2022-10-31T00:59:26;10.50;99.90
49503;DHT22;35409;48.776;9.204;2022-10-31T01:01:51;10.40;99.90
49503;DHT22;35409;48.776;9.204;2022-10-31T01:04:17;10.40;99.90
49503;DHT22;35409;48.776;9.204;2022-10-31T01:06:43;10.40;99.90
49503;DHT22;35409;48.776;9.204;2022-10-31T01:09:08;10.40;99.90
49503;DHT22;35409;48.776;9.204;2022-10-31T01:11:34;10.30;99.90
49503;DHT22;35409;48.776;9.204;2022-10-31T01:14:00;10.40;99.90
49503;DHT22;35409;48.776;9.204;2022-10-31T01:16:27;10.40;99.90
49503;DHT22;35409;48.776;9.204;2022-10-31T01:18:52;10.30;99.90
49503;DHT22;35409;48.776;9.204;2022-10-31T01:21:23;10.30;99.90
49503;DHT22;35409;48.776;9.204;2022-10-31T01:23:50;10.30;99.90
49503;DHT22;35409;48.776;9.204;2022-10-31T01:26:29;10.20;99.90
49503;DHT22;35409;48.776;9.204;2022-10-31T01:29:05;10.20;99.90
49503;DHT22;35409;48.776;9.204;2022-10-31T01:31:34;10.20;99.90
49503;DHT22;35409;48.776;9.204;2022-10-31T01:34:01;10.10;99.90
49503;DHT22;35409;48.776;9.204;2022-10-31T01:36:32;10.10;99.90
49503;DHT22;35409;48.776;9.204;2022-10-31T01:39:00;10.10;99.90
49503;DHT22;35409;48.776;9.204;2022-10-31T01:41:29;10.10;99.90
49503;DHT22;35409;48.776;9.204;2022-10-31T01:43:58;10.10;99.90
49503;DHT22;35409;48.776;9.204;2022-10-31T01:46:25;10.10;99.90
49503;DHT22;35409;48.776;9.204;2022-10-31T01:48:53;10.10;99.90
49503;DHT22;35409;48.776;9.204;2022-10-31T01:51:24;10.10;99.90
49503;DHT22;35409;48.776;9.204;2022-10-31T01:53:52;10.10;99.90
49503;DHT22;35409;48.776;9.204;2022-10-31T01:56:19;10.10;99.90
49503;DHT22;35409;48.776;9.204;2022-10-31T01:58:51;10.10;99.90
49503;DHT22;35409;48.776;9.204;2022-10-31T02:01:18;10.10;99.90
49503;DHT22;35409;48.776;9.204;2022-10-31T02:03:48;10.10;99.90
49503;DHT22;35409;48.776;9.204;2022-10-31T02:06:26;10.10;99.90
49503;DHT22;35409;48.776;9.204;2022-10-31T02:08:55;10.10;99.90
49503;DHT22;35409;48.776;9.204;2022-10-31T02:11:22;10.00;99.90
49503;DHT22;35409;48.776;9.204;2022-10-31T02:13:50;10.00;99.90
49503;DHT22;35409;48.776;9.204;2022-10-31T02:16:15;10.00;99.90
49503;DHT22;35409;48.776;9.204;2022-10-31T02:18:41;10.00;99.90
49503;DHT22;35409;48.776;9.204;2022-10-31T02:21:30;10.00;99.90
49503;DHT22;35409;48.776;9.204;2022-10-31T02:25:01;10.00;99.90
49503;DHT22;35409;48.776;9.204;2022-10-31T02:30:18;10.00;99.90
49503;DHT22;35409;48.776;9.204;2022-10-31T02:33:29;10.00;99.90
49503;DHT22;35409;48.776;9.204;2022-10-31T02:35:50;9.90;99.90
49503;DHT22;35409;48.776;9.204;2022-10-31T02:41:46;9.80;99.90
49503;DHT22;35409;48.776;9.204;2022-10-31T02:46:51;9.80;99.90
49503;DHT22;35409;48.776;9.204;2022-10-31T02:52:31;9.80;99.90
49503;DHT22;35409;48.776;9.204;2022-10-31T02:54:58;9.80;99.90
49503;DHT22;35409;48.776;9.204;2022-10-31T02:57:26;9.80;99.90
49503;DHT22;35409;48.776;9.204;2022-10-31T03:00:02;9.80;99.90
49503;DHT22;35409;48.776;9.204;2022-10-31T03:08:26;9.80;99.90
49503;DHT22;35409;48.776;9.204;2022-10-31T03:11:02;9.80;99.90
49503;DHT22;35409;48.776;9.204;2022-10-31T03:33:34;9.70;99.90
49503;DHT22;35409;48.776;9.204;2022-10-31T03:36:02;9.70;99.90
49503;DHT22;35409;48.776;9.204;2022-10-31T03:38:29;9.70;99.90
49503;DHT22;35409;48.776;9.204;2022-10-31T03:40:58;9.70;99.90
49503;DHT22;35409;48.776;9.204;2022-10-31T03:43:32;9.70;99.90
49503;DHT22;35409;48.776;9.204;2022-10-31T03:45:58;9.70;99.90
49503;DHT22;35409;48.776;9.204;2022-10-31T03:48:24;9.70;99.90
49503;DHT22;35409;48.776;9.204;2022-10-31T03:53:43;9.80;99.90
49503;DHT22;35409;48.776;9.204;2022-10-31T03:56:30;9.80;99.90
49503;DHT22;35409;48.776;9.204;2022-10-31T03:59:08;9.80;99.90
49503;DHT22;35409;48.776;9.204;2022-10-31T04:01:41;9.70;99.90
49503;DHT22;35409;48.776;9.204;2022-10-31T04:04:09;9.70;99.90
49503;DHT22;35409;48.776;9.204;2022-10-31T04:06:36;9.60;99.90
49503;DHT22;35409;48.776;9.204;2022-10-31T04:09:05;9.60;99.90
49503;DHT22;35409;48.776;9.204;2022-10-31T04:11:35;9.60;99.90
49503;DHT22;35409;48.776;9.204;2022-10-31T04:14:02;9.60;99.90
49503;DHT22;35409;48.776;9.204;2022-10-31T04:16:30;9.70;99.90
49503;DHT22;35409;48.776;9.204;2022-10-31T04:18:56;9.70;99.90
49503;DHT22;35409;48.776;9.204;2022-10-31T04:21:27;9.70;99.90
49503;DHT22;35409;48.776;9.204;2022-10-31T04:23:54;9.60;99.90
49503;DHT22;35409;48.776;9.204;2022-10-31T04:26:20;9.60;99.90
49503;DHT22;35409;48.776;9.204;2022-10-31T04:28:52;9.50;99.90
49503;DHT22;35409;48.776;9.204;2022-10-31T04:31:17;9.50;99.90
49503;DHT22;35409;48.776;9.204;2022-10-31T04:33:43;9.40;99.90
49503;DHT22;35409;48.776;9.204;2022-10-31T04:36:09;9.30;99.90
49503;DHT22;35409;48.776;9.204;2022-10-31T04:38:35;9.40;99.90
49503;DHT22;35409;48.776;9.204;2022-10-31T04:41:00;9.40;99.90
49503;DHT22;35409;48.776;9.204;2022-10-31T04:43:26;9.30;99.90
49503;DHT22;35409;48.776;9.204;2022-10-31T04:45:52;9.30;99.90
49503;DHT22;35409;48.776;9.204;2022-10-31T04:48:17;9.30;99.90
49503;DHT22;35409;48.776;9.204;2022-10-31T04:50:43;9.30;99.90
49503;DHT22;35409;48.776;9.204;2022-10-31T04:53:09;9.20;99.90
49503;DHT22;35409;48.776;9.204;2022-10-31T04:55:37;9.20;99.90
49503;DHT22;35409;48.776;9.204;2022-10-31T04:58:03;9.10;99.90
49503;DHT22;35409;48.776;9.204;2022-10-31T05:00:29;9.10;99.90
49503;DHT22;35409;48.776;9.204;2022-10-31T05:02:56;9.10;99.90
49503;DHT22;35409;48.776;9.204;2022-10-31T05:05:28;9.10;99.90
49503;DHT22;35409;48.776;9.204;2022-10-31T05:07:54;9.00;99.90
49503;DHT22;35409;48.776;9.204;2022-10-31T05:10:23;9.00;99.90
49503;DHT22;35409;48.776;9.204;2022-10-31T05:12:58;9.00;99.90
49503;DHT22;35409;48.776;9.204;2022-10-31T05:15:25;9.00;99.90
49503;DHT22;35409;48.776;9.204;2022-10-31T05:17:52;9.00;99.90
49503;DHT22;35409;48.776;9.204;2022-10-31T05:20:20;8.90;99.90
49503;DHT22;35409;48.776;9.204;2022-10-31T05:22:50;8.90;99.90
49503;DHT22;35409;48.776;9.204;2022-10-31T05:25:16;8.90;99.90
49503;DHT22;35409;48.776;9.204;2022-10-31T05:27:47;8.90;99.90
49503;DHT22;35409;48.776;9.204;2022-10-31T05:30:15;9.00;99.90
49503;DHT22;35409;48.776;9.204;2022-10-31T05:32:43;9.00;99.90
49503;DHT22;35409;48.776;9.204;2022-10-31T05:35:12;8.90;99.90
49503;DHT22;35409;48.776;9.204;2022-10-31T05:37:38;8.90;99.90
49503;DHT22;35409;48.776;9.204;2022-10-31T05:40:06;8.80;99.90
49503;DHT22;35409;48.776;9.204;2022-10-31T05:42:32;8.80;99.90
49503;DHT22;35409;48.776;9.204;2022-10-31T05:44:58;8.80;99.90
49503;DHT22;35409;48.776;9.204;2022-10-31T05:47:24;8.90;99.90
49503;DHT22;35409;48.776;9.204;2022-10-31T05:49:50;8.90;99.90
49503;DHT22;35409;48.776;9.204;2022-10-31T05:52:16;8.80;99.90
49503;DHT22;35409;48.776;9.204;2022-10-31T05:54:42;8.90;99.90
49503;DHT22;35409;48.776;9.204;2022-10-31T05:57:08;8.80;99.90
49503;DHT22;35409;48.776;9.204;2022-10-31T05:59:33;8.90;99.90
49503;DHT22;35409;48.776;9.204;2022-10-31T06:01:59;8.90;99.90
49503;DHT22;35409;48.776;9.204;2022-10-31T06:04:24;8.90;99.90
49503;DHT22;35409;48.776;9.204;2022-10-31T06:06:50;8.80;99.90
49503;DHT22;35409;48.776;9.204;2022-10-31T06:09:16;8.80;99.90
49503;DHT22;35409;48.776;9.204;2022-10-31T06:11:41;8.80;99.90
49503;DHT22;35409;48.776;9.204;2022-10-31T06:14:07;8.80;99.90
49503;DHT22;35409;48.776;9.204;2022-10-31T06:16:33;8.80;99.90
49503;DHT22;35409;48.776;9.204;2022-10-31T06:18:59;8.90;99.90
49503;DHT22;35409;48.776;9.204;2022-10-31T06:21:24;8.90;99.90
49503;DHT22;35409;48.776;9.204;2022-10-31T06:23:50;8.90;99.90
49503;DHT22;35409;48.776;9.204;2022-10-31T06:26:16;9.00;99.90
49503;DHT22;35409;48.776;9.204;2022-10-31T06:28:41;9.00;99.90
49503;DHT22;35409;48.776;9.204;2022-10-31T06:31:07;9.00;99.90
49503;DHT22;35409;48.776;9.204;2022-10-31T06:33:33;9.10;99.90
49503;DHT22;35409;48.776;9.204;2022-10-31T06:36:01;9.10;99.90
49503;DHT22;35409;48.776;9.204;2022-10-31T06:38:27;9.10;99.90
49503;DHT22;35409;48.776;9.204;2022-10-31T06:40:54;9.20;99.90
49503;DHT22;35409;48.776;9.204;2022-10-31T06:43:21;9.20;99.90
49503;DHT22;35409;48.776;9.204;2022-10-31T06:45:48;9.20;99.90
49503;DHT22;35409;48.776;9.204;2022-10-31T06:48:14;9.20;99.90
49503;DHT22;35409;48.776;9.204;2022-10-31T06:50:40;9.20;99.90
49503;DHT22;35409;48.776;9.204;2022-10-31T06:53:05;9.20;99.90
49503;DHT22;35409;48.776;9.204;2022-10-31T06:55:31;9.20;99.90
49503;DHT22;35409;48.776;9.204;2022-10-31T06:58:00;9.20;99.90
49503;DHT22;35409;48.776;9.204;2022-10-31T07:00:27;9.30;99.90
49503;DHT22;35409;48.776;9.204;2022-10-31T07:03:02;9.30;99.90
49503;DHT22;35409;48.776;9.204;2022-10-31T07:05:29;9.30;99.90
49503;DHT22;35409;48.776;9.204;2022-10-31T07:07:56;9.30;99.90
49503;DHT22;35409;48.776;9.204;2022-10-31T07:10:24;9.30;99.90
49503;DHT22;35409;48.776;9.204;2022-10-31T07:13:02;9.30;99.90
49503;DHT22;35409;48.776;9.204;2022-10-31T07:15:29;9.40;99.90
49503;DHT22;35409;48.776;9.204;2022-10-31T07:18:03;9.50;99.90
49503;DHT22;35409;48.776;9.204;2022-10-31T07:20:29;9.50;99.90
49503;DHT22;35409;48.776;9.204;2022-10-31T07:22:55;9.60;99.90
49503;DHT22;35409;48.776;9.204;2022-10-31T07:25:21;9.60;99.90
49503;DHT22;35409;48.776;9.204;2022-10-31T07:27:47;9.70;99.90
49503;DHT22;35409;48.776;9.204;2022-10-31T07:30:13;9.70;99.90
49503;DHT22;35409;48.776;9.204;2022-10-31T07:32:44;9.80;99.90
49503;DHT22;35409;48.776;9.204;2022-10-31T07:35:12;9.90;99.90
49503;DHT22;35409;48.776;9.204;2022-10-31T07:37:38;9.90;99.90
49503;DHT22;35409;48.776;9.204;2022-10-31T07:40:05;10.00;99.90
49503;DHT22;35409;48.776;9.204;2022-10-31T07:42:39;10.00;99.90
49503;DHT22;35409;48.776;9.204;2022-10-31T07:45:06;10.10;99.90
49503;DHT22;35409;48.776;9.204;2022-10-31T07:47:58;10.10;99.90
49503;DHT22;35409;48.776;9.204;2022-10-31T07:50:26;10.20;99.90
49503;DHT22;35409;48.776;9.204;2022-10-31T07:53:19;10.30;99.90
49503;DHT22;35409;48.776;9.204;2022-10-31T07:55:44;10.40;99.90
49503;DHT22;35409;48.776;9.204;2022-10-31T07:58:13;10.40;99.90
49503;DHT22;35409;48.776;9.204;2022-10-31T08:00:41;10.50;99.90
49503;DHT22;35409;48.776;9.204;2022-10-31T08:03:11;10.60;99.90
49503;DHT22;35409;48.776;9.204;2022-10-31T08:05:38;10.70;99.90
49503;DHT22;35409;48.776;9.204;2022-10-31T08:08:05;10.70;99.90
49503;DHT22;35409;48.776;9.204;2022-10-31T08:10:31;10.80;99.90
49503;DHT22;35409;48.776;9.204;2022-10-31T08:13:09;10.90;99.90
49503;DHT22;35409;48.776;9.204;2022-10-31T08:15:35;11.00;99.90
49503;DHT22;35409;48.776;9.204;2022-10-31T08:20:54;11.30;99.90
49503;DHT22;35409;48.776;9.204;2022-10-31T08:23:19;11.40;99.90
49503;DHT22;35409;48.776;9.204;2022-10-31T08:25:51;11.60;99.90
49503;DHT22;35409;48.776;9.204;2022-10-31T08:28:17;11.70;99.90
49503;DHT22;35409;48.776;9.204;2022-10-31T08:30:42;11.80;99.90
49503;DHT22;35409;48.776;9.204;2022-10-31T08:33:11;11.80;99.90
49503;DHT22;35409;48.776;9.204;2022-10-31T08:35:37;11.90;99.90
49503;DHT22;35409;48.776;9.204;2022-10-31T08:38:03;12.00;99.90
49503;DHT22;35409;48.776;9.204;2022-10-31T08:40:30;12.00;99.90
49503;DHT22;35409;48.776;9.204;2022-10-31T08:43:12;12.20;99.90
49503;DHT22;35409;48.776;9.204;2022-10-31T08:45:38;12.20;99.90
49503;DHT22;35409;48.776;9.204;2022-10-31T08:48:06;12.40;99.90
49503;DHT22;35409;48.776;9.204;2022-10-31T08:50:34;12.50;99.90
49503;DHT22;35409;48.776;9.204;2022-10-31T08:53:05;12.50;99.90
49503;DHT22;35409;48.776;9.204;2022-10-31T08:55:33;12.70;99.90
49503;DHT22;35409;48.776;9.204;2022-10-31T08:57:59;12.80;99.90
49503;DHT22;35409;48.776;9.204;2022-10-31T09:00:25;12.80;99.90
49503;DHT22;35409;48.776;9.204;2022-10-31T09:02:58;12.90;99.90
49503;DHT22;35409;48.776;9.204;2022-10-31T09:05:24;13.00;99.90
49503;DHT22;35409;48.776;9.204;2022-10-31T09:07:50;13.00;99.90
49503;DHT22;35409;48.776;9.204;2022-10-31T09:10:16;13.10;99.90
49503;DHT22;35409;48.776;9.204;2022-10-31T09:12:42;13.20;99.90
49503;DHT22;35409;48.776;9.204;2022-10-31T09:15:08;13.30;99.90
49503;DHT22;35409;48.776;9.204;2022-10-31T09:17:34;13.40;99.90
49503;DHT22;35409;48.776;9.204;2022-10-31T09:19:59;13.50;99.90
49503;DHT22;35409;48.776;9.204;2022-10-31T09:22:25;13.60;99.90
49503;DHT22;35409;48.776;9.204;2022-10-31T09:24:50;13.70;99.90
49503;DHT22;35409;48.776;9.204;2022-10-31T09:27:16;13.80;99.90
49503;DHT22;35409;48.776;9.204;2022-10-31T09:29:42;13.90;99.90
49503;DHT22;35409;48.776;9.204;2022-10-31T09:32:07;14.00;99.90
49503;DHT22;35409;48.776;9.204;2022-10-31T09:34:33;14.00;99.90
49503;DHT22;35409;48.776;9.204;2022-10-31T09:37:00;14.00;99.90
49503;DHT22;35409;48.776;9.204;2022-10-31T09:39:25;14.10;99.90
49503;DHT22;35409;48.776;9.204;2022-10-31T09:44:24;14.20;99.90
49503;DHT22;35409;48.776;9.204;2022-10-31T09:47:09;14.20;99.90
49503;DHT22;35409;48.776;9.204;2022-10-31T09:49:59;14.20;99.90
49503;DHT22;35409;48.776;9.204;2022-10-31T09:52:33;14.20;99.90
49503;DHT22;35409;48.776;9.204;2022-10-31T09:55:02;14.20;99.90
49503;DHT22;35409;48.776;9.204;2022-10-31T09:57:34;14.30;99.90
49503;DHT22;35409;48.776;9.204;2022-10-31T10:00:04;14.30;99.90
49503;DHT22;35409;48.776;9.204;2022-10-31T10:02:35;14.30;99.90
49503;DHT22;35409;48.776;9.204;2022-10-31T10:05:15;14.40;99.90
49503;DHT22;35409;48.776;9.204;2022-10-31T10:19:10;14.90;99.90
49503;DHT22;35409;48.776;9.204;2022-10-31T10:30:02;15.50;99.90
49503;DHT22;35409;48.776;9.204;2022-10-31T10:32:33;15.60;99.90
49503;DHT22;35409;48.776;9.204;2022-10-31T10:35:29;15.80;99.90
49503;DHT22;35409;48.776;9.204;2022-10-31T10:38:05;15.90;99.90
49503;DHT22;35409;48.776;9.204;2022-10-31T10:40:34;16.00;99.90
49503;DHT22;35409;48.776;9.204;2022-10-31T10:43:20;16.00;99.90
49503;DHT22;35409;48.776;9.204;2022-10-31T10:52:05;16.30;99.90
49503;DHT22;35409;48.776;9.204;2022-10-31T10:54:39;16.30;99.90
49503;DHT22;35409;48.776;9.204;2022-10-31T10:59:52;16.50;99.90
49503;DHT22;35409;48.776;9.204;2022-10-31T11:02:23;16.50;99.90
49503;DHT22;35409;48.776;9.204;2022-10-31T11:04:58;16.50;99.90
49503;DHT22;35409;48.776;9.204;2022-10-31T11:07:23;16.50;99.90
49503;DHT22;35409;48.776;9.204;2022-10-31T11:10:06;16.50;99.90
49503;DHT22;35409;48.776;9.204;2022-10-31T11:12:38;16.60;99.90
49503;DHT22;35409;48.776;9.204;2022-10-31T11:15:19;16.60;99.90
49503;DHT22;35409;48.776;9.204;2022-10-31T11:17:49;16.60;99.90
49503;DHT22;35409;48.776;9.204;2022-10-31T11:22:46;16.70;99.90
49503;DHT22;35409;48.776;9.204;2022-10-31T11:25:23;16.80;99.90
49503;DHT22;35409;48.776;9.204;2022-10-31T11:28:01;17.00;99.90
49503;DHT22;35409;48.776;9.204;2022-10-31T11:30:28;17.10;99.90
49503;DHT22;35409;48.776;9.204;2022-10-31T11:32:54;17.20;99.90
49503;DHT22;35409;48.776;9.204;2022-10-31T11:35:22;17.40;99.90
49503;DHT22;35409;48.776;9.204;2022-10-31T11:37:53;17.60;99.90
49503;DHT22;35409;48.776;9.204;2022-10-31T11:40:22;17.70;99.90
49503;DHT22;35409;48.776;9.204;2022-10-31T11:42:51;17.80;99.90
49503;DHT22;35409;48.776;9.204;2022-10-31T11:47:54;17.90;99.90
49503;DHT22;35409;48.776;9.204;2022-10-31T11:50:27;17.90;99.90
49503;DHT22;35409;48.776;9.204;2022-10-31T11:52:54;18.00;99.90
49503;DHT22;35409;48.776;9.204;2022-10-31T11:57:55;18.20;99.90
49503;DHT22;35409;48.776;9.204;2022-10-31T12:00:37;18.30;99.90
49503;DHT22;35409;48.776;9.204;2022-10-31T12:05:49;18.50;99.90
49503;DHT22;35409;48.776;9.204;2022-10-31T12:08:16;18.50;99.90
49503;DHT22;35409;48.776;9.204;2022-10-31T12:13:39;18.60;99.90
49503;DHT22;35409;48.776;9.204;2022-10-31T12:16:42;18.60;99.90
49503;DHT22;35409;48.776;9.204;2022-10-31T12:19:30;18.70;99.90
49503;DHT22;35409;48.776;9.204;2022-10-31T12:22:07;18.70;99.90
49503;DHT22;35409;48.776;9.204;2022-10-31T12:28:04;19.00;99.90
49503;DHT22;35409;48.776;9.204;2022-10-31T12:30:46;19.10;99.90
49503;DHT22;35409;48.776;9.204;2022-10-31T12:37:13;19.30;99.90
49503;DHT22;35409;48.776;9.204;2022-10-31T12:39:33;19.30;99.90
49503;DHT22;35409;48.776;9.204;2022-10-31T12:47:44;19.00;99.90
49503;DHT22;35409;48.776;9.204;2022-10-31T12:50:34;18.90;99.90
49503;DHT22;35409;48.776;9.204;2022-10-31T13:01:51;18.50;99.90
49503;DHT22;35409;48.776;9.204;2022-10-31T13:04:46;18.40;99.90
49503;DHT22;35409;48.776;9.204;2022-10-31T13:07:25;18.30;99.90
49503;DHT22;35409;48.776;9.204;2022-10-31T13:10:01;18.20;99.90
49503;DHT22;35409;48.776;9.204;2022-10-31T13:12:31;18.20;99.90
49503;DHT22;35409;48.776;9.204;2022-10-31T13:15:03;18.10;99.90
49503;DHT22;35409;48.776;9.204;2022-10-31T13:17:43;18.10;99.90
49503;DHT22;35409;48.776;9.204;2022-10-31T13:20:19;18.10;99.90
49503;DHT22;35409;48.776;9.204;2022-10-31T13:23:31;18.10;99.90
49503;DHT22;35409;48.776;9.204;2022-10-31T13:25:40;18.10;99.90
49503;DHT22;35409;48.776;9.204;2022-10-31T13:30:49;18.00;99.90
49503;DHT22;35409;48.776;9.204;2022-10-31T13:33:23;18.00;99.90
49503;DHT22;35409;48.776;9.204;2022-10-31T13:36:31;18.00;99.90
49503;DHT22;35409;48.776;9.204;2022-10-31T13:41:52;18.10;99.90
49503;DHT22;35409;48.776;9.204;2022-10-31T13:44:22;18.20;99.90
49503;DHT22;35409;48.776;9.204;2022-10-31T13:46:57;18.40;99.90
49503;DHT22;35409;48.776;9.204;2022-10-31T13:54:38;19.10;99.90
49503;DHT22;35409;48.776;9.204;2022-10-31T13:57:30;19.10;99.90
49503;DHT22;35409;48.776;9.204;2022-10-31T14:00:00;19.20;99.90
49503;DHT22;35409;48.776;9.204;2022-10-31T14:02:29;19.20;99.90
49503;DHT22;35409;48.776;9.204;2022-10-31T14:05:03;19.10;99.90
49503;DHT22;35409;48.776;9.204;2022-10-31T14:07:30;19.10;99.90
49503;DHT22;35409;48.776;9.204;2022-10-31T14:10:04;19.00;99.90
49503;DHT22;35409;48.776;9.204;2022-10-31T14:12:42;18.90;99.90
49503;DHT22;35409;48.776;9.204;2022-10-31T14:15:22;18.70;99.90
49503;DHT22;35409;48.776;9.204;2022-10-31T14:18:06;18.60;99.90
49503;DHT22;35409;48.776;9.204;2022-10-31T14:20:43;18.50;99.90
49503;DHT22;35409;48.776;9.204;2022-10-31T14:28:44;18.30;99.90
49503;DHT22;35409;48.776;9.204;2022-10-31T14:31:36;18.30;99.90
49503;DHT22;35409;48.776;9.204;2022-10-31T14:39:26;18.10;99.90
49503;DHT22;35409;48.776;9.204;2022-10-31T14:42:21;18.00;99.90
49503;DHT22;35409;48.776;9.204;2022-10-31T14:45:05;17.90;99.90
49503;DHT22;35409;48.776;9.204;2022-10-31T14:50:56;17.70;99.90
49503;DHT22;35409;48.776;9.204;2022-10-31T14:53:33;17.60;99.90
49503;DHT22;35409;48.776;9.204;2022-10-31T14:56:00;17.50;99.90
49503;DHT22;35409;48.776;9.204;2022-10-31T14:58:40;17.40;99.90
49503;DHT22;35409;48.776;9.204;2022-10-31T15:01:15;17.30;99.90
49503;DHT22;35409;48.776;9.204;2022-10-31T15:03:45;17.20;99.90
49503;DHT22;35409;48.776;9.204;2022-10-31T15:06:13;17.10;99.90
49503;DHT22;35409;48.776;9.204;2022-10-31T15:08:44;17.10;99.90
49503;DHT22;35409;48.776;9.204;2022-10-31T15:11:19;17.00;99.90
49503;DHT22;35409;48.776;9.204;2022-10-31T15:13:56;17.00;99.90
49503;DHT22;35409;48.776;9.204;2022-10-31T15:16:42;17.00;99.90
49503;DHT22;35409;48.776;9.204;2022-10-31T15:19:11;17.00;99.90
49503;DHT22;35409;48.776;9.204;2022-10-31T15:21:44;16.90;99.90
49503;DHT22;35409;48.776;9.204;2022-10-31T15:24:15;16.80;99.90
49503;DHT22;35409;48.776;9.204;2022-10-31T15:26:45;16.70;99.90
49503;DHT22;35409;48.776;9.204;2022-10-31T15:29:13;16.60;99.90
49503;DHT22;35409;48.776;9.204;2022-10-31T15:32:00;16.50;99.90
49503;DHT22;35409;48.776;9.204;2022-10-31T15:37:02;16.20;99.90
49503;DHT22;35409;48.776;9.204;2022-10-31T15:39:28;16.00;99.90
49503;DHT22;35409;48.776;9.204;2022-10-31T15:41:56;15.90;99.90
49503;DHT22;35409;48.776;9.204;2022-10-31T15:44:32;15.80;99.90
49503;DHT22;35409;48.776;9.204;2022-10-31T15:47:16;15.60;99.90
49503;DHT22;35409;48.776;9.204;2022-10-31T15:49:55;15.50;99.90
49503;DHT22;35409;48.776;9.204;2022-10-31T15:52:39;15.40;99.90
49503;DHT22;35409;48.776;9.204;2022-10-31T15:55:19;15.20;99.90
49503;DHT22;35409;48.776;9.204;2022-10-31T15:57:47;15.20;99.90
49503;DHT22;35409;48.776;9.204;2022-10-31T16:00:32;15.00;99.90
49503;DHT22;35409;48.776;9.204;2022-10-31T16:03:06;14.90;99.90
49503;DHT22;35409;48.776;9.204;2022-10-31T16:05:47;14.90;99.90
49503;DHT22;35409;48.776;9.204;2022-10-31T16:13:51;14.60;99.90
49503;DHT22;35409;48.776;9.204;2022-10-31T16:16:18;14.60;99.90
49503;DHT22;35409;48.776;9.204;2022-10-31T16:18:46;14.50;99.90
49503;DHT22;35409;48.776;9.204;2022-10-31T16:21:15;14.50;99.90
49503;DHT22;35409;48.776;9.204;2022-10-31T16:23:48;14.50;99.90
49503;DHT22;35409;48.776;9.204;2022-10-31T16:26:19;14.40;99.90
49503;DHT22;35409;48.776;9.204;2022-10-31T16:28:56;14.30;99.90
49503;DHT22;35409;48.776;9.204;2022-10-31T16:31:29;14.30;99.90
49503;DHT22;35409;48.776;9.204;2022-10-31T16:34:03;14.20;99.90
49503;DHT22;35409;48.776;9.204;2022-10-31T16:36:32;14.10;99.90
49503;DHT22;35409;48.776;9.204;2022-10-31T16:39:00;14.00;99.90
49503;DHT22;35409;48.776;9.204;2022-10-31T16:41:26;13.90;99.90
49503;DHT22;35409;48.776;9.204;2022-10-31T16:43:52;13.80;99.90
49503;DHT22;35409;48.776;9.204;2022-10-31T16:46:23;13.70;99.90
49503;DHT22;35409;48.776;9.204;2022-10-31T16:48:49;13.70;99.90
49503;DHT22;35409;48.776;9.204;2022-10-31T16:51:15;13.60;99.90
49503;DHT22;35409;48.776;9.204;2022-10-31T16:53:43;13.60;99.90
49503;DHT22;35409;48.776;9.204;2022-10-31T16:56:18;13.50;99.90
49503;DHT22;35409;48.776;9.204;2022-10-31T16:58:45;13.40;99.90
49503;DHT22;35409;48.776;9.204;2022-10-31T17:01:12;13.40;99.90
49503;DHT22;35409;48.776;9.204;2022-10-31T17:03:38;13.40;99.90
49503;DHT22;35409;48.776;9.204;2022-10-31T17:06:04;13.30;99.90
49503;DHT22;35409;48.776;9.204;2022-10-31T17:08:30;13.30;99.90
49503;DHT22;35409;48.776;9.204;2022-10-31T17:11:02;13.20;99.90
49503;DHT22;35409;48.776;9.204;2022-10-31T17:13:30;13.10;99.90
49503;DHT22;35409;48.776;9.204;2022-10-31T17:16:02;13.10;99.90
49503;DHT22;35409;48.776;9.204;2022-10-31T17:18:29;13.00;99.90
49503;DHT22;35409;48.776;9.204;2022-10-31T17:20:58;12.90;99.90
49503;DHT22;35409;48.776;9.204;2022-10-31T17:23:28;12.90;99.90
49503;DHT22;35409;48.776;9.204;2022-10-31T17:25:54;12.90;99.90
49503;DHT22;35409;48.776;9.204;2022-10-31T17:28:20;12.80;99.90
49503;DHT22;35409;48.776;9.204;2022-10-31T17:30:46;12.80;99.90
49503;DHT22;35409;48.776;9.204;2022-10-31T17:33:13;12.80;99.90
49503;DHT22;35409;48.776;9.204;2022-10-31T17:35:40;12.80;99.90
49503;DHT22;35409;48.776;9.204;2022-10-31T17:38:07;12.80;99.90
49503;DHT22;35409;48.776;9.204;2022-10-31T17:40:33;12.90;99.90
49503;DHT22;35409;48.776;9.204;2022-10-31T17:43:00;12.90;99.90
49503;DHT22;35409;48.776;9.204;2022-10-31T17:45:26;12.90;99.90
49503;DHT22;35409;48.776;9.204;2022-10-31T17:47:52;12.80;99.90
49503;DHT22;35409;48.776;9.204;2022-10-31T17:50:25;12.80;99.90
49503;DHT22;35409;48.776;9.204;2022-10-31T17:52:51;12.70;99.90
49503;DHT22;35409;48.776;9.204;2022-10-31T17:55:17;12.70;99.90
49503;DHT22;35409;48.776;9.204;2022-10-31T17:57:43;12.70;99.90
49503;DHT22;35409;48.776;9.204;2022-10-31T18:00:12;12.60;99.90
49503;DHT22;35409;48.776;9.204;2022-10-31T18:02:38;12.60;99.90
49503;DHT22;35409;48.776;9.204;2022-10-31T18:05:04;12.50;99.90
49503;DHT22;35409;48.776;9.204;2022-10-31T18:07:31;12.50;99.90
49503;DHT22;35409;48.776;9.204;2022-10-31T18:09:58;12.40;99.90
49503;DHT22;35409;48.776;9.204;2022-10-31T18:12:23;12.40;99.90
49503;DHT22;35409;48.776;9.204;2022-10-31T18:14:51;12.40;99.90
49503;DHT22;35409;48.776;9.204;2022-10-31T18:17:16;12.30;99.90
49503;DHT22;35409;48.776;9.204;2022-10-31T18:19:42;12.30;99.90
49503;DHT22;35409;48.776;9.204;2022-10-31T18:22:08;12.20;99.90
49503;DHT22;35409;48.776;9.204;2022-10-31T18:24:34;12.10;99.90
49503;DHT22;35409;48.776;9.204;2022-10-31T18:26:59;12.10;99.90
49503;DHT22;35409;48.776;9.204;2022-10-31T18:29:25;12.10;99.90
49503;DHT22;35409;48.776;9.204;2022-10-31T18:31:51;12.10;99.90
49503;DHT22;35409;48.776;9.204;2022-10-31T18:34:18;12.10;99.90
49503;DHT22;35409;48.776;9.204;2022-10-31T18:36:44;12.10;99.90
49503;DHT22;35409;48.776;9.204;2022-10-31T18:39:10;12.00;99.90
49503;DHT22;35409;48.776;9.204;2022-10-31T18:41:37;12.10;99.90
49503;DHT22;35409;48.776;9.204;2022-10-31T18:44:05;12.10;99.90
49503;DHT22;35409;48.776;9.204;2022-10-31T18:46:32;12.00;99.90
49503;DHT22;35409;48.776;9.204;2022-10-31T18:49:01;12.00;99.90
49503;DHT22;35409;48.776;9.204;2022-10-31T18:51:27;12.00;99.90
49503;DHT22;35409;48.776;9.204;2022-10-31T18:53:55;12.10;99.90
49503;DHT22;35409;48.776;9.204;2022-10-31T18:56:21;12.10;99.90
49503;DHT22;35409;48.776;9.204;2022-10-31T18:58:48;12.30;99.90
49503;DHT22;35409;48.776;9.204;2022-10-31T19:01:15;12.40;99.90
49503;DHT22;35409;48.776;9.204;2022-10-31T19:03:41;12.50;99.90